Time;durP1;ratioP1;P1;durP2;ratioP2;P2;SDS_P1;SDS_P2;PMS_P1;PMS_P2;Temp;Humidity;BMP_temperature;BMP_pressure;BME280_temperature;BME280_humidity;BME280_pressure;Samples;Min_cycle;Max_cycle;Signal;HPM_P1;HPM_P2
2020/12/13 00:00:33;;;;;;;;;;;7.30;99.90;;;;;;5073669;28;19923;-84
2020/12/13 00:03:21;;;;;;;;;;;7.30;99.90;;;;;;5074611;28;19912;-85
2020/12/13 00:05:52;;;;;;;;;;;7.30;99.90;;;;;;5073793;28;19908;-86
2020/12/13 00:08:24;;;;;;;;;;;7.30;99.90;;;;;;5072931;28;19916;-86
2020/12/13 00:11:02;;;;;;;;;;;7.20;99.90;;;;;;5073618;28;19908;-85
2020/12/13 00:13:30;;;;;;;;;;;7.20;99.90;;;;;;5071449;28;19921;-85
2020/12/13 00:16:04;;;;;;;;;;;7.20;99.90;;;;;;5070260;28;19920;-85
2020/12/13 00:18:35;;;;;;;;;;;7.20;99.90;;;;;;5072825;28;19909;-85
2020/12/13 00:21:12;;;;;;;;;;;7.10;99.90;;;;;;5070602;28;19912;-85
2020/12/13 00:23:41;;;;;;;;;;;7.10;99.90;;;;;;5071706;28;19912;-85
2020/12/13 00:26:09;;;;;;;;;;;7.10;99.90;;;;;;5073684;28;20058;-85
2020/12/13 00:28:38;;;;;;;;;;;7.10;99.90;;;;;;5072899;28;19931;-86
2020/12/13 00:31:12;;;;;;;;;;;7.10;99.90;;;;;;5073021;28;19951;-86
2020/12/13 00:33:42;;;;;;;;;;;7.10;99.90;;;;;;5075171;28;20361;-86
2020/12/13 00:36:18;;;;;;;;;;;7.00;99.90;;;;;;5073572;28;19920;-85
2020/12/13 00:38:51;;;;;;;;;;;7.00;99.90;;;;;;5066850;28;19915;-86
2020/12/13 00:41:23;;;;;;;;;;;7.00;99.90;;;;;;5072728;28;20008;-86
2020/12/13 00:43:52;;;;;;;;;;;7.00;99.90;;;;;;5074221;28;19912;-86
2020/12/13 00:46:21;;;;;;;;;;;6.90;99.90;;;;;;5072726;28;19915;-86
2020/12/13 00:48:50;;;;;;;;;;;6.90;99.90;;;;;;5072704;28;19915;-86
2020/12/13 00:51:45;;;;;;;;;;;6.90;99.90;;;;;;5072512;28;19908;-86
2020/12/13 00:54:11;;;;;;;;;;;6.90;99.90;;;;;;5072260;28;19920;-86
2020/12/13 00:56:42;;;;;;;;;;;6.90;99.90;;;;;;5077042;28;20285;-85
2020/12/13 00:59:10;;;;;;;;;;;6.90;99.90;;;;;;5072366;28;19939;-87
2020/12/13 01:01:40;;;;;;;;;;;6.90;99.90;;;;;;5074139;28;19961;-86
2020/12/13 01:04:08;;;;;;;;;;;6.90;99.90;;;;;;5059164;28;19913;-86
2020/12/13 01:06:50;;;;;;;;;;;6.90;99.90;;;;;;5077972;28;19921;-86
2020/12/13 01:09:19;;;;;;;;;;;6.90;99.90;;;;;;5078964;28;20262;-85
2020/12/13 01:11:45;;;;;;;;;;;6.80;99.90;;;;;;5077469;28;19916;-85
2020/12/13 01:14:16;;;;;;;;;;;6.90;99.90;;;;;;5078423;28;20394;-86
2020/12/13 01:16:44;;;;;;;;;;;6.90;99.90;;;;;;5077107;28;20285;-86
2020/12/13 01:19:12;;;;;;;;;;;6.90;99.90;;;;;;5076657;28;20007;-86
2020/12/13 01:21:49;;;;;;;;;;;6.80;99.90;;;;;;5076940;28;19958;-85
2020/12/13 01:24:17;;;;;;;;;;;6.90;99.90;;;;;;5077758;28;19908;-86
2020/12/13 01:26:43;;;;;;;;;;;6.90;99.90;;;;;;5076169;28;20330;-87
2020/12/13 01:29:13;;;;;;;;;;;6.90;99.90;;;;;;5075786;28;19935;-86
2020/12/13 01:32:02;;;;;;;;;;;6.90;99.90;;;;;;5077305;28;19920;-85
2020/12/13 01:34:30;;;;;;;;;;;6.80;99.90;;;;;;5073264;28;19920;-86
2020/12/13 01:37:02;;;;;;;;;;;6.80;99.90;;;;;;5076223;28;19915;-86
2020/12/13 01:39:38;;;;;;;;;;;6.80;99.90;;;;;;5075807;28;19931;-86
2020/12/13 01:42:06;;;;;;;;;;;6.80;99.90;;;;;;5070758;28;19916;-86
2020/12/13 01:44:35;;;;;;;;;;;6.80;99.90;;;;;;5077275;28;20022;-85
2020/12/13 01:47:08;;;;;;;;;;;6.80;99.90;;;;;;5076059;28;19909;-86
2020/12/13 01:49:43;;;;;;;;;;;6.80;99.90;;;;;;5075876;28;19954;-85
2020/12/13 01:55:05;;;;;;;;;;;6.80;99.90;;;;;;5076993;28;20015;-85
2020/12/13 01:57:36;;;;;;;;;;;6.80;99.90;;;;;;5017979;28;19920;-85
2020/12/13 02:00:13;;;;;;;;;;;6.80;99.90;;;;;;5017999;28;19960;-85
2020/12/13 02:02:54;;;;;;;;;;;6.80;99.90;;;;;;5034077;28;19909;-85
2020/12/13 02:05:20;;;;;;;;;;;6.80;99.90;;;;;;5017706;28;19910;-85
2020/12/13 02:07:54;;;;;;;;;;;6.80;99.90;;;;;;5017777;28;20425;-85
2020/12/13 02:10:40;;;;;;;;;;;6.80;99.90;;;;;;5017904;28;19952;-85
2020/12/13 02:13:12;;;;;;;;;;;6.80;99.90;;;;;;5034745;28;19913;-85
2020/12/13 02:15:42;;;;;;;;;;;6.80;99.90;;;;;;5018372;28;19924;-85
2020/12/13 02:18:10;;;;;;;;;;;6.80;99.90;;;;;;5034706;28;20016;-85
2020/12/13 02:20:36;;;;;;;;;;;6.80;99.90;;;;;;5017634;28;19909;-85
2020/12/13 02:23:06;;;;;;;;;;;6.80;99.90;;;;;;5017850;28;19909;-86
2020/12/13 02:25:40;;;;;;;;;;;6.80;99.90;;;;;;5017869;28;19913;-85
2020/12/13 02:28:08;;;;;;;;;;;6.90;99.90;;;;;;5034719;28;19928;-86
2020/12/13 02:30:37;;;;;;;;;;;6.80;99.90;;;;;;5076284;28;19909;-86
2020/12/13 02:33:16;;;;;;;;;;;6.80;99.90;;;;;;5075178;28;19916;-85
2020/12/13 02:35:44;;;;;;;;;;;6.80;99.90;;;;;;5075078;28;19931;-85
2020/12/13 02:38:09;;;;;;;;;;;6.90;99.90;;;;;;5076118;28;19909;-86
2020/12/13 02:40:38;;;;;;;;;;;6.90;99.90;;;;;;5077379;28;20308;-85
2020/12/13 02:43:08;;;;;;;;;;;6.90;99.90;;;;;;5075139;28;19908;-86
2020/12/13 02:45:39;;;;;;;;;;;6.90;99.90;;;;;;5069340;28;19962;-86
2020/12/13 02:48:07;;;;;;;;;;;6.90;99.90;;;;;;5074704;28;19908;-86
2020/12/13 02:50:38;;;;;;;;;;;6.90;99.90;;;;;;5075536;28;19952;-86
2020/12/13 02:53:06;;;;;;;;;;;7.00;99.90;;;;;;5074104;28;19908;-86
2020/12/13 02:55:35;;;;;;;;;;;7.00;99.90;;;;;;5074557;28;19951;-85
2020/12/13 02:58:21;;;;;;;;;;;7.00;99.90;;;;;;5073865;28;19908;-85
2020/12/13 03:01:00;;;;;;;;;;;7.00;99.90;;;;;;5074428;28;19947;-85
2020/12/13 03:03:29;;;;;;;;;;;7.00;99.90;;;;;;5073698;28;19913;-85
2020/12/13 03:05:55;;;;;;;;;;;7.00;99.90;;;;;;5074226;28;19962;-86
2020/12/13 03:08:25;;;;;;;;;;;7.00;99.90;;;;;;5072384;28;19916;-85
2020/12/13 03:10:55;;;;;;;;;;;7.00;99.90;;;;;;5070820;28;19951;-85
2020/12/13 03:13:26;;;;;;;;;;;7.00;99.90;;;;;;5073948;28;19919;-86
2020/12/13 03:15:57;;;;;;;;;;;7.10;99.90;;;;;;5070958;28;20392;-87
2020/12/13 03:18:28;;;;;;;;;;;7.10;99.90;;;;;;5074146;28;19919;-86
2020/12/13 03:20:56;;;;;;;;;;;7.10;99.90;;;;;;5074386;28;19908;-84
2020/12/13 03:23:33;;;;;;;;;;;7.00;99.90;;;;;;5071900;28;19912;-85
2020/12/13 03:26:03;;;;;;;;;;;7.10;99.90;;;;;;5072446;28;19952;-85
2020/12/13 03:28:36;;;;;;;;;;;7.10;99.90;;;;;;5073034;28;19953;-86
2020/12/13 03:31:08;;;;;;;;;;;7.10;99.90;;;;;;5073699;28;19915;-85
2020/12/13 03:33:37;;;;;;;;;;;7.10;99.90;;;;;;5068254;28;19912;-86
2020/12/13 03:36:10;;;;;;;;;;;7.10;99.90;;;;;;5067125;28;19962;-85
2020/12/13 03:38:41;;;;;;;;;;;7.10;99.90;;;;;;5067786;28;20016;-86
2020/12/13 03:41:15;;;;;;;;;;;7.10;99.90;;;;;;5074775;28;19924;-85
2020/12/13 03:43:44;;;;;;;;;;;7.20;99.90;;;;;;5073523;28;19913;-85
2020/12/13 03:46:13;;;;;;;;;;;7.10;99.90;;;;;;5073498;28;19999;-85
2020/12/13 03:48:44;;;;;;;;;;;7.20;99.90;;;;;;5071402;28;19912;-85
2020/12/13 03:51:12;;;;;;;;;;;7.10;99.90;;;;;;5073213;28;19916;-86
2020/12/13 03:53:40;;;;;;;;;;;7.20;99.90;;;;;;5074599;28;20015;-86
2020/12/13 03:56:13;;;;;;;;;;;7.20;99.90;;;;;;5074376;28;19958;-85
2020/12/13 03:58:42;;;;;;;;;;;7.20;99.90;;;;;;5071126;28;19916;-85
2020/12/13 04:01:14;;;;;;;;;;;7.20;99.90;;;;;;5073705;28;19912;-85
2020/12/13 04:03:48;;;;;;;;;;;7.10;99.90;;;;;;5071561;28;19978;-86
2020/12/13 04:06:16;;;;;;;;;;;7.20;99.90;;;;;;5075098;28;19908;-86
2020/12/13 04:08:42;;;;;;;;;;;7.20;99.90;;;;;;5073417;28;19916;-85
2020/12/13 04:11:14;;;;;;;;;;;7.20;99.90;;;;;;5074530;28;19908;-85
2020/12/13 04:13:39;;;;;;;;;;;7.20;99.90;;;;;;5073672;28;19954;-85
2020/12/13 04:16:10;;;;;;;;;;;7.20;99.90;;;;;;5074024;28;19912;-86
2020/12/13 04:18:39;;;;;;;;;;;7.20;99.90;;;;;;5070643;28;19908;-86
2020/12/13 04:21:24;;;;;;;;;;;7.20;99.90;;;;;;5074768;28;19913;-86
2020/12/13 04:23:52;;;;;;;;;;;7.20;99.90;;;;;;5074112;28;20262;-85
2020/12/13 04:26:26;;;;;;;;;;;7.20;99.90;;;;;;5070961;28;20308;-86
2020/12/13 04:28:54;;;;;;;;;;;7.20;99.90;;;;;;5066938;28;19921;-86
2020/12/13 04:31:30;;;;;;;;;;;7.20;99.90;;;;;;5073463;28;19915;-85
2020/12/13 04:33:58;;;;;;;;;;;7.20;99.90;;;;;;5069348;28;19916;-85
2020/12/13 04:36:39;;;;;;;;;;;7.20;99.90;;;;;;5074288;28;20429;-86
2020/12/13 04:39:15;;;;;;;;;;;7.30;99.90;;;;;;5069131;28;19917;-85
2020/12/13 04:41:46;;;;;;;;;;;7.20;99.90;;;;;;5072748;28;19955;-86
2020/12/13 04:44:16;;;;;;;;;;;7.30;99.90;;;;;;5074079;28;19962;-86
2020/12/13 04:46:47;;;;;;;;;;;7.20;99.90;;;;;;5074029;28;19913;-86
2020/12/13 04:49:24;;;;;;;;;;;7.20;99.90;;;;;;5072916;28;19908;-86
2020/12/13 04:52:06;;;;;;;;;;;7.30;99.90;;;;;;5074157;28;19912;-86
2020/12/13 04:54:35;;;;;;;;;;;7.30;99.90;;;;;;5070337;28;20392;-86
2020/12/13 04:57:15;;;;;;;;;;;7.30;99.90;;;;;;5073331;28;19967;-86
2020/12/13 04:59:48;;;;;;;;;;;7.30;99.90;;;;;;5081066;28;20353;-86
2020/12/13 05:02:14;;;;;;;;;;;7.30;99.90;;;;;;5072281;28;19966;-86
2020/12/13 05:04:42;;;;;;;;;;;7.30;99.90;;;;;;5072553;28;19909;-85
2020/12/13 05:07:08;;;;;;;;;;;7.30;99.90;;;;;;5074176;28;19916;-86
2020/12/13 05:09:40;;;;;;;;;;;7.40;99.90;;;;;;5072899;28;19912;-86
2020/12/13 05:12:08;;;;;;;;;;;7.40;99.90;;;;;;5072602;28;19909;-86
2020/12/13 05:14:33;;;;;;;;;;;7.40;99.90;;;;;;5072961;28;19919;-86
2020/12/13 05:17:12;;;;;;;;;;;7.40;99.90;;;;;;5074912;28;19926;-85
2020/12/13 05:19:42;;;;;;;;;;;7.50;99.90;;;;;;5072836;28;19908;-85
2020/12/13 05:22:11;;;;;;;;;;;7.50;99.90;;;;;;5072704;28;19917;-85
2020/12/13 05:24:45;;;;;;;;;;;7.50;99.90;;;;;;5072221;28;19920;-85
2020/12/13 05:27:21;;;;;;;;;;;7.60;99.90;;;;;;5072467;28;19908;-86
2020/12/13 05:30:02;;;;;;;;;;;7.60;99.90;;;;;;5072083;28;19931;-86
2020/12/13 05:32:34;;;;;;;;;;;7.60;99.90;;;;;;5072440;28;19909;-85
2020/12/13 05:35:06;;;;;;;;;;;7.70;99.90;;;;;;5072674;28;19966;-86
2020/12/13 05:40:36;;;;;;;;;;;7.70;99.90;;;;;;5073850;28;19915;-85
2020/12/13 05:43:15;;;;;;;;;;;7.70;99.90;;;;;;5072991;28;20396;-87
2020/12/13 05:45:56;;;;;;;;;;;7.80;99.90;;;;;;5072008;28;19909;-86
2020/12/13 05:53:50;;;;;;;;;;;7.80;99.90;;;;;;5076649;28;20311;-86
2020/12/13 05:56:26;;;;;;;;;;;;;;;;;;;;;
2020/12/13 05:58:59;;;;;;;;;;;7.80;99.90;;;;;;5077916;28;19970;-86
2020/12/13 06:01:38;;;;;;;;;;;7.80;99.90;;;;;;5076458;28;20369;-86
2020/12/13 06:04:13;;;;;;;;;;;7.90;99.90;;;;;;5075220;28;19909;-86
2020/12/13 06:06:47;;;;;;;;;;;7.90;99.90;;;;;;5072816;28;20007;-86
2020/12/13 06:09:19;;;;;;;;;;;7.80;99.90;;;;;;5076447;28;19971;-86
2020/12/13 06:11:49;;;;;;;;;;;7.90;99.90;;;;;;5072229;28;19915;-86
2020/12/13 06:14:23;;;;;;;;;;;7.90;99.90;;;;;;5075633;28;19919;-86
2020/12/13 06:17:03;;;;;;;;;;;7.90;99.90;;;;;;5076528;28;19958;-86
2020/12/13 06:19:32;;;;;;;;;;;7.90;99.90;;;;;;5074886;28;19934;-86
2020/12/13 06:22:03;;;;;;;;;;;7.90;99.90;;;;;;5075172;28;19912;-86
2020/12/13 06:24:32;;;;;;;;;;;8.00;99.90;;;;;;5076522;28;19959;-86
2020/12/13 06:27:04;;;;;;;;;;;8.00;99.90;;;;;;5075582;28;19908;-86
2020/12/13 06:29:33;;;;;;;;;;;8.00;99.90;;;;;;5070585;28;20014;-86
2020/12/13 06:32:16;;;;;;;;;;;8.00;99.90;;;;;;5072169;28;19913;-86
2020/12/13 06:34:52;;;;;;;;;;;8.00;99.90;;;;;;5075187;28;19923;-86
2020/12/13 06:37:22;;;;;;;;;;;8.00;99.90;;;;;;5076847;28;19916;-86
2020/12/13 06:39:50;;;;;;;;;;;8.00;99.90;;;;;;5074707;28;20369;-86
2020/12/13 06:42:26;;;;;;;;;;;8.00;99.90;;;;;;5068480;28;19916;-86
2020/12/13 06:45:10;;;;;;;;;;;8.00;99.90;;;;;;5075478;28;19913;-87
2020/12/13 06:47:53;;;;;;;;;;;8.00;99.90;;;;;;5075508;28;19909;-86
2020/12/13 06:50:47;;;;;;;;;;;8.00;99.90;;;;;;5072048;28;19966;-86
2020/12/13 06:53:22;;;;;;;;;;;8.00;99.90;;;;;;5073464;28;19912;-85
2020/12/13 06:56:04;;;;;;;;;;;8.00;99.90;;;;;;5074306;28;20018;-86
2020/12/13 06:58:40;;;;;;;;;;;8.00;99.90;;;;;;5074388;28;20003;-86
2020/12/13 07:01:25;;;;;;;;;;;8.00;99.90;;;;;;5074534;28;19916;-85
2020/12/13 07:03:58;;;;;;;;;;;8.00;99.90;;;;;;5073709;28;19909;-85
2020/12/13 07:06:41;;;;;;;;;;;8.00;99.90;;;;;;5076291;28;20320;-85
2020/12/13 07:09:12;;;;;;;;;;;8.00;99.90;;;;;;5075561;28;19916;-86
2020/12/13 07:11:44;;;;;;;;;;;8.00;99.90;;;;;;5074948;28;20296;-85
2020/12/13 07:14:16;;;;;;;;;;;8.00;99.90;;;;;;5076037;28;19917;-85
2020/12/13 07:16:49;;;;;;;;;;;8.00;99.90;;;;;;5076651;28;19908;-85
2020/12/13 07:19:24;;;;;;;;;;;8.00;99.90;;;;;;5070707;28;19914;-85
2020/12/13 07:21:59;;;;;;;;;;;8.00;99.90;;;;;;4977315;28;20124;-86
2020/12/13 07:24:24;;;;;;;;;;;8.00;99.90;;;;;;4994473;28;19921;-86
2020/12/13 07:26:56;;;;;;;;;;;8.00;99.90;;;;;;4989372;28;19914;-86
2020/12/13 07:29:32;;;;;;;;;;;8.00;99.90;;;;;;5005662;28;19927;-85
2020/12/13 07:32:05;;;;;;;;;;;8.00;99.90;;;;;;5012263;28;20055;-85
2020/12/13 07:34:36;;;;;;;;;;;8.00;99.90;;;;;;5013350;28;19920;-86
2020/12/13 07:37:06;;;;;;;;;;;8.00;99.90;;;;;;5013709;28;20428;-85
2020/12/13 07:39:38;;;;;;;;;;;8.00;99.90;;;;;;5013351;28;19910;-85
2020/12/13 07:42:13;;;;;;;;;;;8.00;99.90;;;;;;5010584;28;19948;-85
2020/12/13 07:44:57;;;;;;;;;;;8.00;99.90;;;;;;5012806;28;20021;-85
2020/12/13 07:47:34;;;;;;;;;;;8.10;99.90;;;;;;5010450;28;20406;-85
2020/12/13 07:50:06;;;;;;;;;;;8.00;99.90;;;;;;5009303;28;19909;-85
2020/12/13 07:52:34;;;;;;;;;;;8.00;99.90;;;;;;5013038;28;19997;-86
2020/12/13 07:55:11;;;;;;;;;;;8.10;99.90;;;;;;5014311;28;20092;-86
2020/12/13 07:57:47;;;;;;;;;;;8.10;99.90;;;;;;4996561;28;19918;-86
2020/12/13 08:00:36;;;;;;;;;;;8.10;99.90;;;;;;5013248;28;20410;-85
2020/12/13 08:03:04;;;;;;;;;;;8.10;99.90;;;;;;5012216;28;19913;-86
2020/12/13 08:05:40;;;;;;;;;;;8.10;99.90;;;;;;5038408;28;19915;-86
2020/12/13 08:08:12;;;;;;;;;;;8.10;99.90;;;;;;5071657;28;19919;-85
2020/12/13 08:10:46;;;;;;;;;;;8.10;99.90;;;;;;5074575;28;19908;-85
2020/12/13 08:13:18;;;;;;;;;;;8.10;99.90;;;;;;5074769;28;19909;-86
2020/12/13 08:15:49;;;;;;;;;;;8.10;99.90;;;;;;5069313;28;19923;-85
2020/12/13 08:18:19;;;;;;;;;;;8.10;99.90;;;;;;5072547;28;19909;-85
2020/12/13 08:20:49;;;;;;;;;;;8.10;99.90;;;;;;5073869;28;19908;-85
2020/12/13 08:23:25;;;;;;;;;;;8.10;99.90;;;;;;5074107;28;19915;-85
2020/12/13 08:25:55;;;;;;;;;;;8.10;99.90;;;;;;5073111;28;19912;-86
2020/12/13 08:28:37;;;;;;;;;;;8.10;99.90;;;;;;5067432;28;19921;-85
2020/12/13 08:31:14;;;;;;;;;;;8.10;99.90;;;;;;5072808;28;19916;-85
2020/12/13 08:33:43;;;;;;;;;;;8.10;99.90;;;;;;5072371;28;19913;-85
2020/12/13 08:36:24;;;;;;;;;;;8.10;99.90;;;;;;5073494;28;20300;-85
2020/12/13 08:39:06;;;;;;;;;;;8.10;99.90;;;;;;5072521;28;19908;-85
2020/12/13 08:41:39;;;;;;;;;;;8.10;99.90;;;;;;5073820;28;19909;-86
2020/12/13 08:44:07;;;;;;;;;;;8.10;99.90;;;;;;5072645;28;19909;-85
2020/12/13 08:46:43;;;;;;;;;;;8.10;99.90;;;;;;5070823;28;19913;-85
2020/12/13 08:49:29;;;;;;;;;;;8.10;99.90;;;;;;5068219;28;19909;-85
2020/12/13 08:52:12;;;;;;;;;;;8.20;99.90;;;;;;5072519;28;20396;-85
2020/12/13 08:55:05;;;;;;;;;;;8.20;99.90;;;;;;5072098;28;19917;-86
2020/12/13 08:57:41;;;;;;;;;;;8.10;99.90;;;;;;5068902;28;19908;-86
2020/12/13 09:00:12;;;;;;;;;;;8.10;99.90;;;;;;5084911;28;19919;-86
2020/12/13 09:02:58;;;;;;;;;;;8.10;99.90;;;;;;5089967;28;19916;-86
2020/12/13 09:05:25;;;;;;;;;;;8.10;99.90;;;;;;5087838;28;19966;-86
2020/12/13 09:07:55;;;;;;;;;;;8.10;99.90;;;;;;5093585;28;19912;-86
2020/12/13 09:10:26;;;;;;;;;;;8.10;99.90;;;;;;5089472;28;20291;-86
2020/12/13 09:13:05;;;;;;;;;;;8.10;99.90;;;;;;5093716;28;20384;-86
2020/12/13 09:15:31;;;;;;;;;;;8.10;99.90;;;;;;5083635;28;20060;-86
2020/12/13 09:17:59;;;;;;;;;;;8.10;99.90;;;;;;5093436;28;19985;-86
2020/12/13 09:20:38;;;;;;;;;;;8.10;99.90;;;;;;5093549;28;20250;-86
2020/12/13 09:23:11;;;;;;;;;;;8.10;99.90;;;;;;5092277;28;20024;-85
2020/12/13 09:25:47;;;;;;;;;;;8.10;99.90;;;;;;5085083;28;19920;-86
2020/12/13 09:28:14;;;;;;;;;;;8.10;99.90;;;;;;5083151;28;19908;-85
2020/12/13 09:30:45;;;;;;;;;;;8.10;99.90;;;;;;5098038;28;19908;-86
2020/12/13 09:33:15;;;;;;;;;;;8.10;99.90;;;;;;5080067;28;19909;-86
2020/12/13 09:35:41;;;;;;;;;;;8.00;99.90;;;;;;5085078;28;19920;-87
2020/12/13 09:38:32;;;;;;;;;;;8.10;99.90;;;;;;5115665;28;19907;-87
2020/12/13 09:41:05;;;;;;;;;;;8.10;99.90;;;;;;5099524;28;20022;-86
2020/12/13 09:43:33;;;;;;;;;;;8.00;99.90;;;;;;5118453;28;19986;-86
2020/12/13 09:46:04;;;;;;;;;;;8.00;99.90;;;;;;5096508;28;19912;-87
2020/12/13 09:48:41;;;;;;;;;;;8.00;99.90;;;;;;5074767;28;19916;-86
2020/12/13 09:51:06;;;;;;;;;;;8.10;99.90;;;;;;5058022;28;19936;-86
2020/12/13 09:53:37;;;;;;;;;;;8.10;99.90;;;;;;5055013;28;19970;-85
2020/12/13 09:56:09;;;;;;;;;;;8.10;99.90;;;;;;5062174;28;20409;-85
2020/12/13 09:58:40;;;;;;;;;;;8.10;99.90;;;;;;5040086;28;20006;-85
2020/12/13 10:01:07;;;;;;;;;;;8.10;99.90;;;;;;5063474;28;20011;-85
2020/12/13 10:03:37;;;;;;;;;;;8.10;99.90;;;;;;5047358;28;20366;-85
2020/12/13 10:11:37;;;;;;;;;;;8.20;99.90;;;;;;5066542;28;19924;-86
2020/12/13 10:14:12;;;;;;;;;;;8.20;99.90;;;;;;5062938;28;19921;-85
2020/12/13 10:16:44;;;;;;;;;;;8.20;99.90;;;;;;5066544;28;20015;-86
2020/12/13 10:19:16;;;;;;;;;;;8.20;99.90;;;;;;5065008;28;20360;-86
2020/12/13 10:21:47;;;;;;;;;;;8.20;99.90;;;;;;5084151;28;19912;-85
2020/12/13 10:24:21;;;;;;;;;;;8.20;99.90;;;;;;5089237;28;19919;-86
2020/12/13 10:26:59;;;;;;;;;;;8.20;99.90;;;;;;5083964;28;19993;-86
2020/12/13 10:29:46;;;;;;;;;;;8.30;99.90;;;;;;5099091;28;20006;-86
2020/12/13 10:32:13;;;;;;;;;;;8.30;99.90;;;;;;5041236;28;19918;-88
2020/12/13 10:34:44;;;;;;;;;;;8.30;99.90;;;;;;5017423;28;19917;-87
2020/12/13 10:37:14;;;;;;;;;;;8.30;99.90;;;;;;5016197;28;19913;-86
2020/12/13 10:39:45;;;;;;;;;;;8.40;99.90;;;;;;5033212;28;20003;-86
2020/12/13 10:42:34;;;;;;;;;;;8.40;99.90;;;;;;5032818;28;19909;-86
2020/12/13 10:45:08;;;;;;;;;;;8.40;99.90;;;;;;5021883;28;20424;-86
2020/12/13 10:47:37;;;;;;;;;;;8.40;99.90;;;;;;5033694;28;20657;-85
2020/12/13 10:50:13;;;;;;;;;;;8.40;99.90;;;;;;5033591;28;19909;-85
2020/12/13 10:52:44;;;;;;;;;;;8.50;99.90;;;;;;5033506;28;19924;-85
2020/12/13 10:55:15;;;;;;;;;;;8.50;99.90;;;;;;5033868;28;19917;-84
2020/12/13 10:58:10;;;;;;;;;;;8.60;99.90;;;;;;5032926;28;19916;-84
2020/12/13 11:00:47;;;;;;;;;;;8.70;99.90;;;;;;5016492;28;19909;-85
2020/12/13 11:03:19;;;;;;;;;;;8.70;99.90;;;;;;5064973;28;20353;-86
2020/12/13 11:05:50;;;;;;;;;;;8.80;99.90;;;;;;5077621;28;19916;-85
2020/12/13 11:08:25;;;;;;;;;;;8.90;99.90;;;;;;5077463;28;19908;-86
2020/12/13 11:10:56;;;;;;;;;;;8.80;99.90;;;;;;5077390;28;19908;-85
2020/12/13 11:13:25;;;;;;;;;;;8.90;99.90;;;;;;5077478;28;19908;-85
2020/12/13 11:15:56;;;;;;;;;;;8.90;99.90;;;;;;5095501;28;19916;-85
2020/12/13 11:18:23;;;;;;;;;;;8.90;99.90;;;;;;5089900;28;19947;-86
2020/12/13 11:20:52;;;;;;;;;;;9.00;99.90;;;;;;5097257;28;19915;-86
2020/12/13 11:23:20;;;;;;;;;;;9.00;99.90;;;;;;5098027;28;20013;-86
2020/12/13 11:25:48;;;;;;;;;;;9.00;99.90;;;;;;5091347;28;19962;-85
2020/12/13 11:28:28;;;;;;;;;;;9.00;99.90;;;;;;5088619;28;19912;-85
2020/12/13 11:30:56;;;;;;;;;;;9.00;99.90;;;;;;5103665;28;19934;-85
2020/12/13 11:33:21;;;;;;;;;;;9.10;99.90;;;;;;5088909;28;19986;-85
2020/12/13 11:35:50;;;;;;;;;;;9.10;99.90;;;;;;5086866;28;19927;-85
2020/12/13 11:38:17;;;;;;;;;;;9.20;99.90;;;;;;5078558;28;19909;-85
2020/12/13 11:40:43;;;;;;;;;;;9.30;99.90;;;;;;5076914;28;20353;-85
2020/12/13 11:43:11;;;;;;;;;;;9.40;99.90;;;;;;5076883;28;20019;-85
2020/12/13 11:45:39;;;;;;;;;;;9.40;99.90;;;;;;5084469;28;19916;-85
2020/12/13 11:48:15;;;;;;;;;;;9.50;99.90;;;;;;5091105;28;19930;-85
2020/12/13 11:51:04;;;;;;;;;;;9.60;99.90;;;;;;5094093;28;19927;-85
2020/12/13 11:53:38;;;;;;;;;;;9.60;99.90;;;;;;5095682;28;19912;-84
2020/12/13 11:56:06;;;;;;;;;;;9.60;99.90;;;;;;5096384;28;19916;-86
2020/12/13 11:58:35;;;;;;;;;;;9.60;99.90;;;;;;5097737;28;19908;-85
2020/12/13 12:01:05;;;;;;;;;;;9.50;99.90;;;;;;5115361;28;20302;-85
2020/12/13 12:03:33;;;;;;;;;;;9.50;99.90;;;;;;5096661;28;19911;-85
2020/12/13 12:05:58;;;;;;;;;;;9.50;99.90;;;;;;5090991;28;20417;-85
2020/12/13 12:08:30;;;;;;;;;;;9.50;99.90;;;;;;5096671;28;19912;-84
2020/12/13 12:10:57;;;;;;;;;;;9.50;99.90;;;;;;5096167;28;20345;-85
2020/12/13 12:13:56;;;;;;;;;;;9.60;99.90;;;;;;5114833;28;20264;-84
2020/12/13 12:16:41;;;;;;;;;;;9.60;99.90;;;;;;5096119;28;19916;-84
2020/12/13 12:19:39;;;;;;;;;;;9.70;99.90;;;;;;5091088;28;19911;-85
2020/12/13 12:22:20;;;;;;;;;;;9.60;99.90;;;;;;5114343;28;20371;-85
2020/12/13 12:24:56;;;;;;;;;;;9.50;99.90;;;;;;5112915;28;19939;-85
2020/12/13 12:27:34;;;;;;;;;;;9.50;99.90;;;;;;5096025;28;19908;-85
2020/12/13 12:30:08;;;;;;;;;;;9.40;99.90;;;;;;5092608;28;19920;-85
2020/12/13 12:32:37;;;;;;;;;;;9.50;99.90;;;;;;5092863;28;19970;-85
2020/12/13 12:35:08;;;;;;;;;;;9.80;99.90;;;;;;5092814;28;20011;-84
2020/12/13 12:37:37;;;;;;;;;;;10.10;99.90;;;;;;5093955;28;19920;-84
2020/12/13 12:40:08;;;;;;;;;;;10.30;99.90;;;;;;5092631;28;19909;-84
2020/12/13 12:43:00;;;;;;;;;;;10.40;99.90;;;;;;5092653;28;20444;-84
2020/12/13 12:45:34;;;;;;;;;;;10.30;99.90;;;;;;5093021;28;19908;-84
2020/12/13 12:48:31;;;;;;;;;;;10.30;99.90;;;;;;5093773;28;19958;-84
2020/12/13 12:51:17;;;;;;;;;;;10.10;99.90;;;;;;5094291;28;19915;-83
2020/12/13 12:53:52;;;;;;;;;;;9.80;99.90;;;;;;5089996;28;19961;-84
2020/12/13 12:56:21;;;;;;;;;;;9.50;99.90;;;;;;5093093;28;20306;-85
2020/12/13 12:59:07;;;;;;;;;;;9.60;99.90;;;;;;5092580;28;20011;-84
2020/12/13 13:01:42;;;;;;;;;;;10.00;99.90;;;;;;5095557;28;19908;-84
2020/12/13 13:04:36;;;;;;;;;;;10.60;99.90;;;;;;5098062;28;19959;-84
2020/12/13 13:07:09;;;;;;;;;;;11.10;99.90;;;;;;5099789;28;19912;-84
2020/12/13 13:09:50;;;;;;;;;;;11.20;99.90;;;;;;5096757;28;19966;-83
2020/12/13 13:12:18;;;;;;;;;;;11.10;99.90;;;;;;5098872;28;19915;-84
2020/12/13 13:14:43;;;;;;;;;;;10.80;99.90;;;;;;5098219;28;19912;-84
2020/12/13 13:17:19;;;;;;;;;;;10.50;99.90;;;;;;5097133;28;19912;-84
2020/12/13 13:19:49;;;;;;;;;;;10.20;99.90;;;;;;5096162;28;19908;-85
2020/12/13 13:22:17;;;;;;;;;;;10.00;99.90;;;;;;5097995;28;20261;-85
2020/12/13 13:24:50;;;;;;;;;;;9.80;99.90;;;;;;5097554;28;20281;-84
2020/12/13 13:27:24;;;;;;;;;;;9.60;99.90;;;;;;5093154;28;20013;-85
2020/12/13 13:29:51;;;;;;;;;;;9.40;99.90;;;;;;5096052;28;19924;-85
2020/12/13 13:32:31;;;;;;;;;;;9.30;99.90;;;;;;5096001;28;19955;-84
2020/12/13 13:34:58;;;;;;;;;;;9.20;99.90;;;;;;5096118;28;19927;-85
2020/12/13 13:37:26;;;;;;;;;;;9.10;99.90;;;;;;5090090;28;20426;-85
2020/12/13 13:39:54;;;;;;;;;;;9.10;99.90;;;;;;5096341;28;19922;-86
2020/12/13 13:42:26;;;;;;;;;;;9.00;99.90;;;;;;5090767;28;19908;-85
2020/12/13 13:45:06;;;;;;;;;;;8.90;99.90;;;;;;5096164;28;20341;-85
2020/12/13 13:50:19;;;;;;;;;;;8.90;99.90;;;;;;5097225;28;19913;-85
2020/12/13 13:52:48;;;;;;;;;;;8.90;99.90;;;;;;5096969;28;19916;-85
2020/12/13 13:55:33;;;;;;;;;;;8.80;99.90;;;;;;5095413;28;20400;-84
2020/12/13 13:58:06;;;;;;;;;;;8.80;99.90;;;;;;5095638;28;20333;-84
2020/12/13 14:00:41;;;;;;;;;;;8.70;99.90;;;;;;5097354;28;19908;-85
2020/12/13 14:03:13;;;;;;;;;;;8.80;99.90;;;;;;5095961;28;19977;-85
2020/12/13 14:06:07;;;;;;;;;;;8.70;99.90;;;;;;5097057;28;20303;-84
2020/12/13 14:08:41;;;;;;;;;;;8.70;99.90;;;;;;5094494;28;19908;-84
2020/12/13 14:11:21;;;;;;;;;;;8.70;99.90;;;;;;5095153;28;19908;-85
2020/12/13 14:14:02;;;;;;;;;;;8.60;99.90;;;;;;5096235;28;19912;-85
2020/12/13 14:16:30;;;;;;;;;;;8.60;99.90;;;;;;5095700;28;19912;-85
2020/12/13 14:19:01;;;;;;;;;;;8.50;99.90;;;;;;5095072;28;19908;-84
2020/12/13 14:21:35;;;;;;;;;;;8.40;99.90;;;;;;5094932;28;20003;-84
2020/12/13 14:24:09;;;;;;;;;;;8.40;99.90;;;;;;5096847;28;19908;-84
2020/12/13 14:26:43;;;;;;;;;;;8.30;99.90;;;;;;5095316;28;19958;-85
2020/12/13 14:29:11;;;;;;;;;;;8.20;99.90;;;;;;5104008;28;19920;-84
2020/12/13 14:31:50;;;;;;;;;;;8.20;99.90;;;;;;5098444;28;19915;-85
2020/12/13 14:34:15;;;;;;;;;;;8.20;99.90;;;;;;5114479;28;19919;-84
2020/12/13 14:36:45;;;;;;;;;;;8.10;99.90;;;;;;5116651;28;19916;-85
2020/12/13 14:39:11;;;;;;;;;;;8.00;99.90;;;;;;5111355;28;19908;-85
2020/12/13 14:41:37;;;;;;;;;;;8.00;99.90;;;;;;5097885;28;19912;-85
2020/12/13 14:44:08;;;;;;;;;;;7.90;99.90;;;;;;5116661;28;19915;-84
2020/12/13 14:46:42;;;;;;;;;;;7.90;99.90;;;;;;5098083;28;19951;-84
2020/12/13 14:49:12;;;;;;;;;;;7.80;99.90;;;;;;5116329;28;19950;-85
2020/12/13 14:51:39;;;;;;;;;;;7.80;99.90;;;;;;5117088;28;19915;-84
2020/12/13 14:54:10;;;;;;;;;;;7.70;99.90;;;;;;5122321;28;19933;-85
2020/12/13 14:56:37;;;;;;;;;;;7.70;99.90;;;;;;5112414;28;19912;-85
2020/12/13 14:59:10;;;;;;;;;;;7.60;99.90;;;;;;5095488;28;19912;-85
2020/12/13 15:01:44;;;;;;;;;;;7.60;99.90;;;;;;5097896;28;20356;-84
2020/12/13 15:04:26;;;;;;;;;;;7.50;99.90;;;;;;5115916;28;19908;-85
2020/12/13 15:06:53;;;;;;;;;;;7.40;99.90;;;;;;5115972;28;19908;-85
2020/12/13 15:09:19;;;;;;;;;;;7.40;99.90;;;;;;5116488;28;19907;-85
2020/12/13 15:11:51;;;;;;;;;;;7.30;99.90;;;;;;5097725;28;20288;-85
2020/12/13 15:14:57;;;;;;;;;;;7.20;99.90;;;;;;5097520;28;19911;-85
2020/12/13 15:17:43;;;;;;;;;;;7.10;99.90;;;;;;5110769;28;19958;-85
2020/12/13 15:20:10;;;;;;;;;;;7.00;99.90;;;;;;5114748;28;20456;-85
2020/12/13 15:22:39;;;;;;;;;;;6.90;99.90;;;;;;5109164;28;19908;-86
2020/12/13 15:25:07;;;;;;;;;;;6.90;99.90;;;;;;5091295;28;19957;-85